createdAt,value
2022-11-20T00:00:03.395Z,1.50
2022-11-20T00:03:10.017Z,0.95
2022-11-20T00:06:16.450Z,1.30
2022-11-20T00:09:19.865Z,1.38
2022-11-20T00:12:23.093Z,2.22
2022-11-20T00:15:26.344Z,2.03
2022-11-20T00:18:30.216Z,1.67
2022-11-20T00:21:33.513Z,1.20
2022-11-20T00:24:41.687Z,2.97
2022-11-20T00:27:45.972Z,1.52
2022-11-20T00:30:48.905Z,1.73
2022-11-20T00:33:52.420Z,2.00
2022-11-20T00:36:55.995Z,1.10
2022-11-20T00:39:59.090Z,2.58
2022-11-20T00:43:02.058Z,2.50
2022-11-20T00:46:14.648Z,1.70
2022-11-20T00:49:17.851Z,1.73
2022-11-20T00:52:20.877Z,1.13
2022-11-20T00:55:23.852Z,1.13
2022-11-20T00:58:30.344Z,1.60
2022-11-20T01:01:33.509Z,2.42
2022-11-20T01:04:36.591Z,1.90
2022-11-20T01:07:39.640Z,1.70
2022-11-20T01:10:42.711Z,2.28
2022-11-20T01:13:47.446Z,1.90
2022-11-20T01:16:52.892Z,1.52
2022-11-20T01:19:56.120Z,3.15
2022-11-20T01:22:59.086Z,2.17
2022-11-20T01:26:04.198Z,2.15
2022-11-20T01:29:08.644Z,2.17
2022-11-20T01:32:11.665Z,4.63
2022-11-20T01:35:14.800Z,2.97
2022-11-20T01:38:18.796Z,3.33
2022-11-20T01:41:41.856Z,0.55
2022-11-20T01:44:55.354Z,2.30
2022-11-20T01:47:58.419Z,6.22
2022-11-20T01:51:03.019Z,2.80
2022-11-20T01:54:11.471Z,3.20
2022-11-20T01:57:15.774Z,3.28
2022-11-20T02:03:23.078Z,1.60
2022-11-20T02:06:33.541Z,2.07
2022-11-20T02:09:36.907Z,2.58
2022-11-20T02:12:58.828Z,2.07
2022-11-20T02:16:02.549Z,2.00
2022-11-20T02:19:13.603Z,3.63
2022-11-20T02:22:28.186Z,3.85
2022-11-20T02:28:35.595Z,1.80
2022-11-20T02:31:41.940Z,4.57
2022-11-20T02:34:45.056Z,2.78
2022-11-20T02:37:54.567Z,2.90
2022-11-20T02:40:57.703Z,3.03
2022-11-20T02:44:00.863Z,4.85
2022-11-20T02:47:04.068Z,10.93
2022-11-20T02:50:07.892Z,17.00
2022-11-20T02:53:11.077Z,28.48
2022-11-20T02:56:14.501Z,15.82
2022-11-20T02:59:17.398Z,13.40
2022-11-20T03:02:20.364Z,11.52
2022-11-20T03:05:23.855Z,3.17
2022-11-20T03:08:27.280Z,4.00
2022-11-20T03:11:30.647Z,13.38
2022-11-20T03:14:33.633Z,2.53
2022-11-20T03:17:36.813Z,2.30
2022-11-20T03:20:39.847Z,3.53
2022-11-20T03:23:43.153Z,3.35
2022-11-20T03:26:46.254Z,3.20
2022-11-20T03:29:49.227Z,3.83
2022-11-20T03:32:55.557Z,4.57
2022-11-20T03:36:03.716Z,3.47
2022-11-20T03:39:07.137Z,2.38
2022-11-20T03:42:30.607Z,3.90
2022-11-20T03:45:33.532Z,2.47
2022-11-20T03:48:36.490Z,3.05
2022-11-20T03:51:39.718Z,2.42
2022-11-20T03:54:42.876Z,3.47
2022-11-20T03:57:46.242Z,4.65
2022-11-20T04:00:49.360Z,4.15
2022-11-20T04:03:55.019Z,5.47
2022-11-20T04:06:58.148Z,5.45
2022-11-20T04:10:01.272Z,6.15
2022-11-20T04:13:04.622Z,5.18
2022-11-20T04:16:09.040Z,8.73
2022-11-20T04:19:17.640Z,6.20
2022-11-20T04:22:20.806Z,7.53
2022-11-20T04:25:27.590Z,7.15
2022-11-20T04:28:31.147Z,15.10
2022-11-20T04:31:36.339Z,7.10
2022-11-20T04:34:40.028Z,8.65
2022-11-20T04:37:43.996Z,12.45
2022-11-20T04:40:47.025Z,12.82
2022-11-20T04:43:51.840Z,9.77
2022-11-20T04:46:55.185Z,8.55
2022-11-20T04:49:58.833Z,7.03
2022-11-20T04:53:02.262Z,8.60
2022-11-20T04:56:09.345Z,5.10
2022-11-20T04:59:12.726Z,4.43
2022-11-20T05:02:16.336Z,6.53
2022-11-20T05:05:21.409Z,4.80
2022-11-20T05:08:24.836Z,3.25
2022-11-20T05:11:30.583Z,4.75
2022-11-20T05:14:34.367Z,4.40
2022-11-20T05:17:38.478Z,6.28
2022-11-20T05:20:41.605Z,3.22
2022-11-20T05:23:46.087Z,4.43
2022-11-20T05:26:49.321Z,6.07
2022-11-20T05:29:52.559Z,3.83
2022-11-20T05:32:55.744Z,2.28
2022-11-20T05:36:02.087Z,3.45
2022-11-20T05:39:05.495Z,4.50
2022-11-20T05:42:26.923Z,4.25
2022-11-20T05:45:30.548Z,4.22
2022-11-20T05:48:35.232Z,4.73
2022-11-20T05:51:38.755Z,3.45
2022-11-20T05:54:42.111Z,6.25
2022-11-20T05:57:45.344Z,5.88
2022-11-20T06:00:48.533Z,4.32
2022-11-20T06:03:52.391Z,5.47
2022-11-20T06:06:55.564Z,3.60
2022-11-20T06:09:58.733Z,2.72
2022-11-20T06:13:02.384Z,2.83
2022-11-20T06:16:06.312Z,4.25
2022-11-20T06:19:10.040Z,2.95
2022-11-20T06:22:13.336Z,3.10
2022-11-20T06:25:16.713Z,3.85
2022-11-20T06:28:19.826Z,3.92
2022-11-20T06:31:25.185Z,3.67
2022-11-20T06:34:28.462Z,3.15
2022-11-20T06:37:31.773Z,3.80
2022-11-20T06:40:35.248Z,5.00
2022-11-20T06:43:38.573Z,3.72
2022-11-20T06:46:44.947Z,3.72
2022-11-20T06:49:48.271Z,3.15
2022-11-20T06:52:51.339Z,3.50
2022-11-20T06:55:58.732Z,5.82
2022-11-20T06:59:06.956Z,3.47
2022-11-20T07:02:15.351Z,4.22
2022-11-20T07:05:19.625Z,4.32
2022-11-20T07:08:22.773Z,3.47
2022-11-20T07:11:26.061Z,3.65
2022-11-20T07:14:29.586Z,3.97
2022-11-20T07:17:32.776Z,4.03
2022-11-20T07:20:35.976Z,6.00
2022-11-20T07:23:41.988Z,4.32
2022-11-20T07:26:49.363Z,3.25
2022-11-20T07:29:52.809Z,2.65
2022-11-20T07:32:57.713Z,3.85
2022-11-20T07:36:01.894Z,3.72
2022-11-20T07:39:05.154Z,5.03
2022-11-20T07:42:09.061Z,5.05
2022-11-20T07:45:14.187Z,4.25
2022-11-20T07:48:17.800Z,6.05
2022-11-20T07:51:21.143Z,10.07
2022-11-20T07:54:25.153Z,10.45
2022-11-20T07:57:28.573Z,6.90
2022-11-20T08:00:32.178Z,7.70
2022-11-20T08:03:35.881Z,7.05
2022-11-20T08:06:39.127Z,8.33
2022-11-20T08:09:42.563Z,8.77
2022-11-20T08:13:10.390Z,6.18
2022-11-20T08:16:13.741Z,6.10
2022-11-20T08:19:20.046Z,6.53
2022-11-20T08:22:23.673Z,10.10
2022-11-20T08:25:26.715Z,20.20
2022-11-20T08:28:30.056Z,53.40
2022-11-20T08:31:33.567Z,22.52
2022-11-20T08:34:36.642Z,9.98
2022-11-20T08:37:43.030Z,10.60
2022-11-20T08:41:05.998Z,7.40
2022-11-20T08:44:10.293Z,11.68
2022-11-20T08:47:14.985Z,8.77
2022-11-20T08:50:19.136Z,9.83
2022-11-20T08:53:22.692Z,7.55
2022-11-20T08:56:25.941Z,6.18
2022-11-20T08:59:58.672Z,5.25
2022-11-20T09:02:53.772Z,4.45
2022-11-20T09:09:06.809Z,5.22
2022-11-20T09:12:10.286Z,5.50
2022-11-20T09:15:14.300Z,4.75
2022-11-20T09:18:17.504Z,5.63
2022-11-20T09:21:20.901Z,7.57
2022-11-20T09:24:24.293Z,3.87
2022-11-20T09:27:27.392Z,3.35
2022-11-20T09:30:30.610Z,2.58
2022-11-20T09:33:33.904Z,2.60
2022-11-20T09:36:37.535Z,2.20
2022-11-20T09:39:41.462Z,1.77
2022-11-20T09:43:12.100Z,4.60
2022-11-20T09:46:36.737Z,8.88
2022-11-20T09:50:01.816Z,13.57
2022-11-20T09:53:17.061Z,4.90
2022-11-20T09:56:22.991Z,7.47
2022-11-20T09:59:42.632Z,9.18
2022-11-20T10:02:45.753Z,6.32
2022-11-20T10:06:02.048Z,13.03
2022-11-20T10:09:32.782Z,11.50
2022-11-20T10:12:36.027Z,9.57
2022-11-20T10:16:30.632Z,10.48
2022-11-20T10:19:47.291Z,6.13
2022-11-20T10:23:07.093Z,4.68
2022-11-20T10:26:42.595Z,6.05
2022-11-20T10:29:51.218Z,5.03
2022-11-20T10:32:58.057Z,5.50
2022-11-20T10:36:15.431Z,5.70
2022-11-20T10:39:51.293Z,8.27
2022-11-20T10:43:30.027Z,6.65
2022-11-20T10:47:09.530Z,6.95
2022-11-20T10:50:24.211Z,7.22
2022-11-20T10:54:10.216Z,6.97
2022-11-20T10:57:51.935Z,8.07
2022-11-20T11:01:15.377Z,11.20
2022-11-20T11:04:30.855Z,22.33
2022-11-20T11:07:40.938Z,12.75
2022-11-20T11:10:48.829Z,28.15
2022-11-20T11:14:07.220Z,16.02
2022-11-20T11:17:28.510Z,21.65
2022-11-20T11:20:33.456Z,25.90
2022-11-20T11:23:44.838Z,25.45
2022-11-20T11:27:05.588Z,46.05
2022-11-20T11:30:19.452Z,54.97
2022-11-20T11:33:25.328Z,55.15
2022-11-20T11:36:28.517Z,56.05
2022-11-20T11:39:33.147Z,37.63
2022-11-20T11:42:36.146Z,25.90
2022-11-20T11:45:39.426Z,33.33
2022-11-20T11:48:44.829Z,30.10
2022-11-20T11:52:02.540Z,20.55
2022-11-20T11:55:11.447Z,28.60
2022-11-20T11:58:42.790Z,25.95
2022-11-20T12:01:59.888Z,20.58
2022-11-20T12:05:13.571Z,25.38
2022-11-20T12:08:25.392Z,16.43
2022-11-20T12:12:10.232Z,17.05
2022-11-20T12:15:18.033Z,18.13
2022-11-20T12:18:23.332Z,23.95
2022-11-20T12:21:47.711Z,24.75
2022-11-20T12:25:15.093Z,35.20
2022-11-20T12:28:23.477Z,24.40
2022-11-20T12:31:34.910Z,8.95
2022-11-20T12:34:56.338Z,9.05
2022-11-20T12:38:26.339Z,6.55
2022-11-20T12:42:02.379Z,7.13
2022-11-20T12:45:31.411Z,9.10
2022-11-20T12:48:53.927Z,14.90
2022-11-20T12:52:12.434Z,15.73
2022-11-20T12:55:27.733Z,13.07
2022-11-20T12:58:47.976Z,7.60
2022-11-20T13:02:28.328Z,11.00
2022-11-20T13:06:12.179Z,27.70
2022-11-20T13:09:18.715Z,10.02
2022-11-20T13:12:37.987Z,12.15
2022-11-20T13:15:52.259Z,13.65
2022-11-20T13:21:58.439Z,7.80
2022-11-20T13:25:01.410Z,10.70
2022-11-20T13:28:31.355Z,8.48
2022-11-20T13:31:36.938Z,9.20
2022-11-20T13:34:40.293Z,7.97
2022-11-20T13:37:43.345Z,11.83
2022-11-20T13:40:57.474Z,11.13
2022-11-20T13:44:10.918Z,12.85
2022-11-20T13:47:27.180Z,11.27
2022-11-20T13:50:41.289Z,14.13
2022-11-20T13:54:05.307Z,8.52
2022-11-20T13:57:26.647Z,8.27
2022-11-20T14:00:29.892Z,11.60
2022-11-20T14:06:59.846Z,20.70
2022-11-20T14:10:02.921Z,16.05
2022-11-20T14:13:19.585Z,27.10
2022-11-20T14:16:23.746Z,25.50
2022-11-20T14:22:35.451Z,15.23
2022-11-20T14:25:39.048Z,20.10
2022-11-20T14:28:42.136Z,22.02
2022-11-20T14:31:49.955Z,24.52
2022-11-20T14:34:58.789Z,17.67
2022-11-20T14:38:03.834Z,15.88
2022-11-20T14:41:17.955Z,14.88
2022-11-20T14:44:29.966Z,16.35
2022-11-20T14:47:33.432Z,22.15
2022-11-20T14:50:36.479Z,17.58
2022-11-20T14:53:39.575Z,19.40
2022-11-20T14:56:42.659Z,20.80
2022-11-20T14:59:45.686Z,20.73
2022-11-20T15:02:52.617Z,18.27
2022-11-20T15:05:55.634Z,24.58
2022-11-20T15:08:59.141Z,20.88
2022-11-20T15:12:04.091Z,29.88
2022-11-20T15:15:08.274Z,28.98
2022-11-20T15:18:24.055Z,26.50
2022-11-20T15:21:27.244Z,27.17
2022-11-20T15:24:32.114Z,23.73
2022-11-20T15:27:35.095Z,22.67
2022-11-20T15:30:38.266Z,22.70
2022-11-20T15:33:41.656Z,27.63
2022-11-20T15:36:45.569Z,25.02
2022-11-20T15:39:50.263Z,21.33
2022-11-20T15:43:09.909Z,25.85
2022-11-20T15:46:27.901Z,27.77
2022-11-20T15:49:31.542Z,22.75
2022-11-20T15:52:41.931Z,18.75
2022-11-20T15:55:45.392Z,22.35
2022-11-20T15:58:48.578Z,15.80
2022-11-20T16:01:52.021Z,13.52
2022-11-20T16:04:55.488Z,10.85
2022-11-20T16:07:59.883Z,11.95
2022-11-20T16:11:03.324Z,9.90
2022-11-20T16:14:25.596Z,9.48
2022-11-20T16:17:44.170Z,12.50
2022-11-20T16:20:49.165Z,10.63
2022-11-20T16:23:52.143Z,9.95
2022-11-20T16:26:56.099Z,14.68
2022-11-20T16:29:59.058Z,12.88
2022-11-20T16:33:04.275Z,10.00
2022-11-20T16:36:16.579Z,15.23
2022-11-20T16:39:23.593Z,13.60
2022-11-20T16:42:26.992Z,10.43
2022-11-20T16:45:33.722Z,10.18
2022-11-20T16:48:37.077Z,5.95
2022-11-20T16:51:40.056Z,6.28
2022-11-20T16:54:43.163Z,7.47
2022-11-20T16:57:46.236Z,9.25
2022-11-20T17:00:51.859Z,4.13
2022-11-20T17:04:05.550Z,8.82
2022-11-20T17:07:09.106Z,8.63
2022-11-20T17:10:12.097Z,9.48
2022-11-20T17:13:15.084Z,9.02
2022-11-20T17:16:22.056Z,9.68
2022-11-20T17:19:25.134Z,13.45
2022-11-20T17:22:28.410Z,11.93
2022-11-20T17:25:34.627Z,8.77
2022-11-20T17:28:38.838Z,5.03
2022-11-20T17:31:42.720Z,8.80
2022-11-20T17:34:45.764Z,8.23
2022-11-20T17:37:48.725Z,11.32
2022-11-20T17:40:54.722Z,12.55
2022-11-20T17:44:00.484Z,8.98
2022-11-20T17:47:03.826Z,9.63
2022-11-20T17:50:07.963Z,8.43
2022-11-20T17:53:11.039Z,7.32
2022-11-20T17:56:32.530Z,8.23
2022-11-20T17:59:35.599Z,9.77
2022-11-20T18:02:38.614Z,8.32
2022-11-20T18:05:41.756Z,8.97
2022-11-20T18:08:45.334Z,11.05
2022-11-20T18:11:48.295Z,9.73
2022-11-20T18:14:51.287Z,14.07
2022-11-20T18:17:54.525Z,10.70
2022-11-20T18:20:57.518Z,9.07
2022-11-20T18:24:01.708Z,13.60
2022-11-20T18:27:06.378Z,11.67
2022-11-20T18:30:10.248Z,11.63
2022-11-20T18:33:13.956Z,12.53
2022-11-20T18:36:20.558Z,13.37
2022-11-20T18:39:24.217Z,14.33
2022-11-20T18:42:45.753Z,14.57
2022-11-20T18:45:48.792Z,13.53
2022-11-20T18:48:53.034Z,10.65
2022-11-20T18:51:56.103Z,10.23
2022-11-20T18:54:59.689Z,7.70
2022-11-20T18:58:02.616Z,12.90
2022-11-20T19:01:07.340Z,12.73
2022-11-20T19:04:12.232Z,9.80
2022-11-20T19:07:16.306Z,9.80
2022-11-20T19:13:23.562Z,13.23
2022-11-20T19:16:26.651Z,19.17
2022-11-20T19:19:29.747Z,14.37
2022-11-20T19:22:32.759Z,12.52
2022-11-20T19:25:38.317Z,15.70
2022-11-20T19:28:41.492Z,16.43
2022-11-20T19:31:44.606Z,15.80
2022-11-20T19:34:47.693Z,12.50
2022-11-20T19:37:53.675Z,17.80
2022-11-20T19:40:56.656Z,10.87
2022-11-20T19:44:04.887Z,17.43
2022-11-20T19:47:12.979Z,14.70
2022-11-20T19:50:17.487Z,15.03
2022-11-20T19:53:20.539Z,8.80
2022-11-20T19:56:25.766Z,18.60
2022-11-20T20:02:31.780Z,9.70
2022-11-20T20:05:35.271Z,15.27
2022-11-20T20:08:38.852Z,8.07
2022-11-20T20:11:46.324Z,11.20
2022-11-20T20:14:49.291Z,12.30
2022-11-20T20:17:55.528Z,11.63
2022-11-20T20:21:09.579Z,13.20
2022-11-20T20:24:13.236Z,16.42
2022-11-20T20:27:16.204Z,18.75
2022-11-20T20:30:19.224Z,12.60
2022-11-20T20:33:23.064Z,7.82
2022-11-20T20:36:27.034Z,8.93
2022-11-20T20:39:30.280Z,11.03
2022-11-20T20:42:33.570Z,11.32
2022-11-20T20:45:36.661Z,6.43
2022-11-20T20:48:39.630Z,8.13
2022-11-20T20:51:42.617Z,10.37
2022-11-20T20:54:45.531Z,13.93
2022-11-20T20:57:49.744Z,12.20
2022-11-20T21:00:53.712Z,13.40
2022-11-20T21:03:57.665Z,19.27
2022-11-20T21:10:04.411Z,14.57
2022-11-20T21:13:07.567Z,11.93
2022-11-20T21:16:11.685Z,8.97
2022-11-20T21:19:15.107Z,10.50
2022-11-20T21:22:18.297Z,18.00
2022-11-20T21:25:21.321Z,10.75
2022-11-20T21:28:24.301Z,18.75
2022-11-20T21:31:27.974Z,14.30
2022-11-20T21:34:30.949Z,6.90
2022-11-20T21:37:38.331Z,12.43
2022-11-20T21:40:44.118Z,8.87
2022-11-20T21:44:09.141Z,8.88
2022-11-20T21:47:10.324Z,9.73
2022-11-20T21:50:13.290Z,9.83
2022-11-20T21:53:16.291Z,8.07
2022-11-20T21:56:22.414Z,7.78
2022-11-20T21:59:25.420Z,8.57
2022-11-20T22:02:28.424Z,10.63
2022-11-20T22:05:31.381Z,11.00
2022-11-20T22:08:38.905Z,8.88
2022-11-20T22:11:41.923Z,10.03
2022-11-20T22:14:46.466Z,8.80
2022-11-20T22:18:07.671Z,7.47
2022-11-20T22:21:11.108Z,4.43
2022-11-20T22:24:16.730Z,14.43
2022-11-20T22:27:19.738Z,15.33
2022-11-20T22:30:22.873Z,10.45
2022-11-20T22:33:27.802Z,10.32
2022-11-20T22:36:32.179Z,11.53
2022-11-20T22:39:35.155Z,12.67
2022-11-20T22:42:38.137Z,9.87
2022-11-20T22:45:41.050Z,17.63
2022-11-20T22:48:51.315Z,13.95
2022-11-20T22:51:54.616Z,13.13
2022-11-20T22:54:57.756Z,7.57
2022-11-20T22:58:00.908Z,7.57
2022-11-20T23:01:11.046Z,9.85
2022-11-20T23:04:14.157Z,12.30
2022-11-20T23:07:17.362Z,11.13
2022-11-20T23:10:20.488Z,10.57
2022-11-20T23:13:23.409Z,13.10
2022-11-20T23:16:28.360Z,9.82
2022-11-20T23:19:31.358Z,10.80
2022-11-20T23:22:34.655Z,12.82
2022-11-20T23:25:37.628Z,9.27
2022-11-20T23:28:41.785Z,19.17
2022-11-20T23:31:44.752Z,14.77
2022-11-20T23:34:47.722Z,10.15
2022-11-20T23:37:50.737Z,17.33
2022-11-20T23:40:54.347Z,13.07
2022-11-20T23:43:57.351Z,8.15
2022-11-20T23:47:00.345Z,12.00
2022-11-20T23:50:03.327Z,15.65
2022-11-20T23:53:06.711Z,9.63
2022-11-20T23:56:09.825Z,7.93
2022-11-20T23:59:12.867Z,14.88
